createdAt,value
2023-03-06T00:00:33.378Z,0.36
2023-03-06T00:03:00.758Z,0.31
2023-03-06T00:05:14.913Z,0.26
2023-03-06T00:07:27.508Z,0.23
2023-03-06T00:09:40.058Z,0.19
2023-03-06T00:11:52.596Z,0.14
2023-03-06T00:14:05.148Z,0.12
2023-03-06T00:16:17.735Z,0.14
2023-03-06T00:18:30.406Z,0.16
2023-03-06T00:20:44.395Z,0.17
2023-03-06T00:22:57.638Z,0.17
2023-03-06T00:25:15.260Z,0.14
2023-03-06T00:27:27.815Z,0.14
2023-03-06T00:29:40.310Z,0.12
2023-03-06T00:31:52.937Z,0.13
2023-03-06T00:34:05.533Z,0.11
2023-03-06T00:36:18.112Z,0.09
2023-03-06T00:38:33.352Z,0.07
2023-03-06T00:40:45.961Z,0.06
2023-03-06T00:42:58.580Z,0.07
2023-03-06T00:45:11.774Z,0.09
2023-03-06T00:47:24.398Z,0.11
2023-03-06T00:49:37.019Z,0.10
2023-03-06T00:51:49.691Z,0.10
2023-03-06T00:54:02.283Z,0.12
2023-03-06T00:56:14.967Z,0.13
2023-03-06T00:58:27.508Z,0.17
2023-03-06T01:00:40.128Z,0.19
2023-03-06T01:02:53.650Z,0.20
2023-03-06T01:05:07.882Z,0.19
2023-03-06T01:07:20.517Z,0.21
2023-03-06T01:09:33.056Z,0.23
2023-03-06T01:11:45.629Z,0.24
2023-03-06T01:13:58.984Z,0.23
2023-03-06T01:16:14.368Z,0.21
2023-03-06T01:18:27.044Z,0.21
2023-03-06T01:20:39.580Z,0.21
2023-03-06T01:22:52.201Z,0.24
2023-03-06T01:25:05.032Z,0.23
2023-03-06T01:27:17.600Z,0.21
2023-03-06T01:29:30.233Z,0.25
2023-03-06T01:31:42.970Z,0.26
2023-03-06T01:33:55.520Z,0.25
2023-03-06T01:36:11.305Z,0.27
2023-03-06T01:38:23.918Z,0.27
2023-03-06T01:40:37.413Z,0.27
2023-03-06T01:42:50.904Z,0.26
2023-03-06T01:45:26.313Z,0.24
2023-03-06T01:47:38.925Z,0.19
2023-03-06T01:49:51.732Z,0.20
2023-03-06T01:52:11.805Z,0.21
2023-03-06T01:54:28.366Z,0.22
2023-03-06T01:56:43.731Z,0.25
2023-03-06T01:58:57.120Z,0.25
2023-03-06T02:01:14.401Z,0.25
2023-03-06T02:03:28.672Z,0.25
2023-03-06T02:05:43.706Z,0.25
2023-03-06T02:07:57.598Z,0.26
2023-03-06T02:10:10.680Z,0.29
2023-03-06T02:12:23.822Z,0.34
2023-03-06T02:14:37.181Z,0.35
2023-03-06T02:16:50.567Z,0.37
2023-03-06T02:19:07.390Z,0.36
2023-03-06T02:21:27.201Z,0.34
2023-03-06T02:24:00.035Z,0.34
2023-03-06T02:26:13.809Z,0.34
2023-03-06T02:28:27.152Z,0.35
2023-03-06T02:30:40.705Z,0.36
2023-03-06T02:32:53.792Z,0.37
2023-03-06T02:35:07.136Z,0.38
2023-03-06T02:37:20.540Z,0.37
2023-03-06T02:39:34.411Z,0.38
2023-03-06T02:41:47.033Z,0.39
2023-03-06T02:43:59.637Z,0.40
2023-03-06T02:46:15.044Z,0.39
2023-03-06T02:48:27.633Z,0.42
2023-03-06T02:50:41.807Z,0.42
2023-03-06T02:52:54.423Z,0.42
2023-03-06T02:55:07.983Z,0.44
2023-03-06T02:57:20.536Z,0.47
2023-03-06T02:59:33.440Z,0.49
2023-03-06T03:01:47.723Z,0.50
2023-03-06T03:04:00.360Z,0.52
2023-03-06T03:06:12.987Z,0.53
2023-03-06T03:08:26.513Z,0.57
2023-03-06T03:10:39.114Z,0.59
2023-03-06T03:12:51.866Z,0.62
2023-03-06T03:15:05.562Z,0.62
2023-03-06T03:17:18.142Z,0.62
2023-03-06T03:19:30.870Z,0.62
2023-03-06T03:21:43.437Z,0.64
2023-03-06T03:23:56.037Z,0.64
2023-03-06T03:26:14.353Z,0.66
2023-03-06T03:28:27.045Z,0.67
2023-03-06T03:30:41.051Z,0.65
2023-03-06T03:32:55.158Z,0.63
2023-03-06T03:35:11.951Z,0.60
2023-03-06T03:37:24.538Z,0.60
2023-03-06T03:39:37.124Z,0.61
2023-03-06T03:41:50.100Z,0.63
2023-03-06T03:44:02.649Z,0.62
2023-03-06T03:46:15.235Z,0.63
2023-03-06T03:48:27.869Z,0.65
2023-03-06T03:50:40.420Z,0.67
2023-03-06T03:52:53.007Z,0.67
2023-03-06T03:55:06.197Z,0.68
2023-03-06T03:57:18.836Z,0.68
2023-03-06T03:59:31.374Z,0.70
2023-03-06T04:01:45.866Z,0.71
2023-03-06T04:03:58.489Z,0.70
2023-03-06T04:06:11.321Z,0.70
2023-03-06T04:08:25.100Z,0.71
2023-03-06T04:10:39.359Z,0.72
2023-03-06T04:12:51.967Z,0.72
2023-03-06T04:15:06.008Z,0.68
2023-03-06T04:17:18.552Z,0.67
2023-03-06T04:19:31.101Z,0.71
2023-03-06T04:21:43.779Z,0.72
2023-03-06T04:23:56.369Z,0.73
2023-03-06T04:26:09.680Z,0.73
2023-03-06T04:28:22.735Z,0.71
2023-03-06T04:30:35.861Z,0.70
2023-03-06T04:32:48.592Z,0.72
2023-03-06T04:35:01.175Z,0.74
2023-03-06T04:37:20.368Z,0.73
2023-03-06T04:39:32.895Z,0.73
2023-03-06T04:41:45.550Z,0.75
2023-03-06T04:43:58.100Z,0.78
2023-03-06T04:46:11.113Z,0.78
2023-03-06T04:48:23.639Z,0.81
2023-03-06T04:50:37.970Z,0.81
2023-03-06T04:52:51.452Z,0.84
2023-03-06T04:55:08.603Z,0.85
2023-03-06T04:57:22.048Z,0.85
2023-03-06T04:59:34.547Z,0.83
2023-03-06T05:01:47.487Z,0.83
2023-03-06T05:04:00.141Z,0.83
2023-03-06T05:06:12.752Z,0.83
2023-03-06T05:08:25.445Z,0.81
2023-03-06T05:10:38.121Z,0.83
2023-03-06T05:12:50.677Z,0.85
2023-03-06T05:15:07.689Z,0.87
2023-03-06T05:17:20.256Z,0.91
2023-03-06T05:19:32.916Z,0.95
2023-03-06T05:21:45.444Z,0.98
2023-03-06T05:23:58.038Z,1.00
2023-03-06T05:26:13.031Z,1.03
2023-03-06T05:28:25.997Z,1.03
2023-03-06T05:30:39.505Z,1.06
2023-03-06T05:32:52.228Z,1.08
2023-03-06T05:35:05.903Z,1.10
2023-03-06T05:37:18.474Z,1.11
2023-03-06T05:39:31.317Z,1.16
2023-03-06T05:41:44.026Z,1.19
2023-03-06T05:43:56.951Z,1.23
2023-03-06T05:46:11.186Z,1.25
2023-03-06T05:48:23.693Z,1.28
2023-03-06T05:50:36.339Z,1.31
2023-03-06T05:52:49.007Z,1.35
2023-03-06T05:55:01.945Z,1.39
2023-03-06T05:57:14.561Z,1.43
2023-03-06T05:59:28.596Z,1.44
2023-03-06T06:01:41.157Z,1.46
2023-03-06T06:03:54.280Z,1.51
2023-03-06T06:06:11.670Z,1.53
2023-03-06T06:08:24.358Z,1.57
2023-03-06T06:10:37.049Z,1.61
2023-03-06T06:12:49.701Z,1.64
2023-03-06T06:15:02.336Z,1.67
2023-03-06T06:17:16.495Z,1.70
2023-03-06T06:19:30.981Z,1.75
2023-03-06T06:21:43.554Z,1.79
2023-03-06T06:23:56.105Z,1.84
2023-03-06T06:26:09.975Z,1.89
2023-03-06T06:28:22.526Z,1.94
2023-03-06T06:30:35.046Z,1.98
2023-03-06T06:32:48.179Z,2.01
2023-03-06T06:35:00.872Z,2.06
2023-03-06T06:37:14.276Z,2.08
2023-03-06T06:39:27.040Z,2.13
2023-03-06T06:41:55.479Z,2.16
2023-03-06T06:44:15.480Z,2.18
2023-03-06T06:47:14.402Z,2.21
2023-03-06T06:49:02.941Z,2.24
2023-03-06T06:51:17.373Z,2.28
2023-03-06T06:53:30.292Z,2.30
2023-03-06T06:55:42.923Z,2.32
2023-03-06T06:57:55.535Z,2.36
2023-03-06T07:00:12.838Z,2.37
2023-03-06T07:02:25.450Z,2.37
2023-03-06T07:04:44.297Z,2.40
2023-03-06T07:07:02.250Z,2.44
2023-03-06T07:09:14.743Z,2.49
2023-03-06T07:11:27.326Z,2.53
2023-03-06T07:13:40.344Z,2.56
2023-03-06T07:15:52.959Z,2.58
2023-03-06T07:18:05.853Z,2.61
2023-03-06T07:20:19.880Z,2.64
2023-03-06T07:22:44.764Z,2.68
2023-03-06T07:25:01.226Z,2.71
2023-03-06T07:27:13.930Z,2.75
2023-03-06T07:29:26.502Z,2.78
2023-03-06T07:31:39.320Z,2.81
2023-03-06T07:33:53.552Z,2.85
2023-03-06T07:36:11.313Z,2.87
2023-03-06T07:38:24.708Z,2.92
2023-03-06T07:40:38.826Z,2.96
2023-03-06T07:43:09.203Z,2.99
2023-03-06T07:45:29.604Z,3.02
2023-03-06T07:47:42.261Z,3.11
2023-03-06T07:49:59.315Z,3.21
2023-03-06T07:52:12.733Z,3.35
2023-03-06T07:54:26.315Z,3.48
2023-03-06T07:56:38.871Z,3.59
2023-03-06T07:58:51.429Z,3.75
2023-03-06T08:01:10.459Z,3.89
2023-03-06T08:03:22.999Z,4.01
2023-03-06T08:05:35.510Z,4.12
2023-03-06T08:07:48.041Z,4.21
2023-03-06T08:10:01.080Z,4.29
2023-03-06T08:12:15.750Z,4.36
2023-03-06T08:14:29.240Z,4.41
2023-03-06T08:16:42.667Z,4.42
2023-03-06T08:18:56.665Z,4.40
2023-03-06T08:21:12.459Z,4.36
2023-03-06T08:23:25.025Z,4.35
2023-03-06T08:25:37.675Z,4.35
2023-03-06T08:27:50.252Z,4.34
2023-03-06T08:30:03.503Z,4.30
2023-03-06T08:32:16.066Z,4.26
2023-03-06T08:34:28.649Z,4.27
2023-03-06T08:36:41.645Z,4.28
2023-03-06T08:38:54.666Z,4.31
2023-03-06T08:41:07.302Z,4.35
2023-03-06T08:43:19.831Z,4.45
2023-03-06T08:45:32.447Z,4.56
2023-03-06T08:47:44.996Z,4.68
2023-03-06T08:50:00.201Z,4.78
2023-03-06T08:52:13.411Z,4.86
2023-03-06T08:54:25.943Z,4.92
2023-03-06T08:56:39.030Z,5.02
2023-03-06T08:58:52.858Z,5.07
2023-03-06T09:01:07.367Z,5.13
2023-03-06T09:03:20.018Z,5.18
2023-03-06T09:05:32.709Z,5.20
2023-03-06T09:07:45.262Z,5.18
2023-03-06T09:09:58.170Z,5.23
2023-03-06T09:12:10.818Z,5.26
2023-03-06T09:14:23.497Z,5.31
2023-03-06T09:16:36.103Z,5.43
2023-03-06T09:18:50.881Z,5.57
2023-03-06T09:21:04.447Z,5.66
2023-03-06T09:23:16.999Z,5.64
2023-03-06T09:25:29.502Z,5.64
2023-03-06T09:27:42.047Z,5.63
2023-03-06T09:29:55.532Z,5.65
2023-03-06T09:32:08.155Z,5.66
2023-03-06T09:34:20.683Z,5.60
2023-03-06T09:36:42.766Z,5.62
2023-03-06T09:39:02.032Z,5.64
2023-03-06T09:41:30.330Z,5.66
2023-03-06T09:43:49.609Z,5.61
2023-03-06T09:46:21.112Z,5.52
2023-03-06T09:48:49.829Z,5.46
2023-03-06T09:51:11.061Z,5.50
2023-03-06T09:54:00.670Z,5.53
2023-03-06T09:56:17.921Z,5.58
2023-03-06T09:58:36.123Z,5.76
2023-03-06T10:01:12.378Z,5.84
2023-03-06T10:03:27.961Z,5.80
2023-03-06T10:05:45.236Z,5.82
2023-03-06T10:08:05.180Z,5.79
2023-03-06T10:10:24.994Z,5.79
2023-03-06T10:12:44.706Z,5.83
2023-03-06T10:15:12.252Z,5.84
2023-03-06T10:17:28.979Z,5.89
2023-03-06T10:19:42.328Z,5.95
2023-03-06T10:22:02.147Z,5.95
2023-03-06T10:24:42.311Z,5.97
2023-03-06T10:27:10.657Z,6.01
2023-03-06T10:30:01.740Z,6.12
2023-03-06T10:32:32.153Z,6.21
2023-03-06T10:34:50.741Z,6.22
2023-03-06T10:37:16.808Z,6.17
2023-03-06T10:39:29.510Z,6.21
2023-03-06T10:41:42.553Z,6.33
2023-03-06T10:44:04.615Z,6.37
2023-03-06T10:46:29.253Z,6.40
2023-03-06T10:48:42.705Z,6.39
2023-03-06T10:51:33.169Z,6.42
2023-03-06T10:53:58.930Z,6.44
2023-03-06T10:56:11.512Z,6.54
2023-03-06T10:58:26.075Z,6.64
2023-03-06T11:00:38.589Z,6.77
2023-03-06T11:03:21.643Z,6.89
2023-03-06T11:05:34.215Z,6.93
2023-03-06T11:07:59.446Z,6.92
2023-03-06T11:10:19.662Z,6.82
2023-03-06T11:12:33.530Z,6.89
2023-03-06T11:14:46.097Z,6.90
2023-03-06T11:16:58.624Z,6.96
2023-03-06T11:19:28.822Z,7.00
2023-03-06T11:21:41.448Z,6.94
2023-03-06T11:24:00.598Z,6.92
2023-03-06T11:26:16.193Z,6.87
2023-03-06T11:28:41.767Z,6.76
2023-03-06T11:31:20.885Z,6.72
2023-03-06T11:33:47.491Z,6.65
2023-03-06T11:36:11.362Z,6.63
2023-03-06T11:38:40.363Z,6.60
2023-03-06T11:40:55.954Z,6.55
2023-03-06T11:43:23.516Z,6.46
2023-03-06T11:45:44.983Z,6.40
2023-03-06T11:48:09.598Z,6.31
2023-03-06T11:50:30.953Z,6.22
2023-03-06T11:52:56.032Z,6.22
2023-03-06T11:55:15.465Z,6.27
2023-03-06T11:57:51.214Z,6.24
2023-03-06T12:00:14.626Z,6.18
2023-03-06T12:02:33.196Z,6.17
2023-03-06T12:05:02.218Z,6.20
2023-03-06T12:07:23.682Z,6.27
2023-03-06T12:09:50.723Z,6.32
2023-03-06T12:12:32.878Z,6.31
2023-03-06T12:15:04.986Z,6.28
2023-03-06T12:17:26.511Z,6.17
2023-03-06T12:19:54.068Z,6.10
2023-03-06T12:22:31.352Z,6.01
2023-03-06T12:25:05.651Z,5.90
2023-03-06T12:27:26.984Z,5.85
2023-03-06T12:29:59.948Z,5.77
2023-03-06T12:32:21.782Z,5.66
2023-03-06T12:34:55.925Z,5.49
2023-03-06T12:37:21.076Z,5.22
2023-03-06T12:40:06.596Z,5.10
2023-03-06T12:42:50.777Z,4.92
2023-03-06T12:45:03.252Z,4.88
2023-03-06T12:47:20.739Z,4.92
2023-03-06T12:49:38.742Z,4.91
2023-03-06T12:51:53.938Z,4.87
2023-03-06T12:54:07.320Z,4.85
2023-03-06T12:56:21.830Z,4.84
2023-03-06T12:58:44.993Z,4.79
2023-03-06T13:01:31.642Z,4.70
2023-03-06T13:04:23.671Z,4.59
2023-03-06T13:06:59.795Z,4.38
2023-03-06T13:09:28.029Z,4.26
2023-03-06T13:11:58.532Z,4.25
2023-03-06T13:14:28.055Z,4.20
2023-03-06T13:16:40.848Z,4.17
2023-03-06T13:19:02.971Z,4.19
2023-03-06T13:21:43.921Z,4.15
2023-03-06T13:24:04.562Z,4.00
2023-03-06T13:26:26.668Z,3.96
2023-03-06T13:28:48.790Z,3.94
2023-03-06T13:31:01.371Z,3.85
2023-03-06T13:33:36.242Z,3.84
2023-03-06T13:35:53.216Z,3.74
2023-03-06T13:38:33.236Z,3.71
2023-03-06T13:40:45.830Z,3.65
2023-03-06T13:43:12.053Z,3.65
2023-03-06T13:45:29.433Z,3.66
2023-03-06T13:48:15.538Z,3.66
2023-03-06T13:50:44.815Z,3.63
2023-03-06T13:53:09.247Z,3.56
2023-03-06T13:55:48.902Z,3.55
2023-03-06T13:58:16.477Z,3.40
2023-03-06T14:01:00.536Z,3.33
2023-03-06T14:03:45.291Z,3.37
2023-03-06T14:05:58.946Z,3.44
2023-03-06T14:08:17.457Z,3.59
2023-03-06T14:10:34.370Z,3.74
2023-03-06T14:12:49.915Z,3.89
2023-03-06T14:15:21.946Z,4.04
2023-03-06T14:17:37.989Z,4.14
2023-03-06T14:19:51.237Z,4.10
2023-03-06T14:22:05.764Z,4.08
2023-03-06T14:24:20.236Z,4.10
2023-03-06T14:26:40.470Z,4.19
2023-03-06T14:28:52.950Z,4.37
2023-03-06T14:31:06.662Z,4.52
2023-03-06T14:33:48.897Z,4.64
2023-03-06T14:36:07.936Z,4.68
2023-03-06T14:38:20.563Z,4.78
2023-03-06T14:40:44.920Z,4.86
2023-03-06T14:43:11.597Z,4.80
2023-03-06T14:45:24.846Z,4.74
2023-03-06T14:47:37.405Z,4.75
2023-03-06T14:50:30.032Z,4.79
2023-03-06T14:52:43.168Z,4.81
2023-03-06T14:54:56.776Z,4.88
2023-03-06T14:57:15.419Z,4.98
2023-03-06T14:59:31.131Z,5.08
2023-03-06T15:01:50.675Z,5.12
2023-03-06T15:04:15.459Z,5.14
2023-03-06T15:06:40.173Z,5.08
2023-03-06T15:09:07.619Z,5.04
2023-03-06T15:11:20.416Z,5.03
2023-03-06T15:13:34.691Z,5.05
2023-03-06T15:16:19.714Z,5.07
2023-03-06T15:18:39.105Z,5.02
2023-03-06T15:20:55.901Z,5.00
2023-03-06T15:23:22.141Z,5.01
2023-03-06T15:25:34.754Z,5.05
2023-03-06T15:27:49.912Z,5.07
2023-03-06T15:30:23.617Z,5.03
2023-03-06T15:32:42.374Z,5.02
2023-03-06T15:35:36.602Z,4.99
2023-03-06T15:37:51.044Z,4.94
2023-03-06T15:40:09.340Z,4.94
2023-03-06T15:42:25.847Z,4.92
2023-03-06T15:44:38.417Z,4.93
2023-03-06T15:46:56.262Z,4.99
2023-03-06T15:49:16.597Z,5.04
2023-03-06T15:51:30.675Z,5.04
2023-03-06T15:53:43.340Z,5.05
2023-03-06T15:55:56.454Z,5.04
2023-03-06T15:58:15.256Z,5.02
2023-03-06T16:00:30.751Z,5.02
2023-03-06T16:02:43.296Z,5.03
2023-03-06T16:04:56.092Z,4.99
2023-03-06T16:07:08.785Z,4.95
2023-03-06T16:09:22.935Z,4.92
2023-03-06T16:11:43.726Z,4.90
2023-03-06T16:13:59.500Z,4.82
2023-03-06T16:16:18.786Z,4.78
2023-03-06T16:18:31.567Z,4.75
2023-03-06T16:20:44.653Z,4.74
2023-03-06T16:22:57.317Z,4.75
2023-03-06T16:25:10.195Z,4.73
2023-03-06T16:27:25.638Z,4.70
2023-03-06T16:29:38.210Z,4.69
2023-03-06T16:31:51.515Z,4.68
2023-03-06T16:34:04.241Z,4.67
2023-03-06T16:36:20.628Z,4.68
2023-03-06T16:38:33.191Z,4.66
2023-03-06T16:40:45.765Z,4.66
2023-03-06T16:42:58.567Z,4.61
2023-03-06T16:45:11.826Z,4.55
2023-03-06T16:47:24.341Z,4.54
2023-03-06T16:49:36.960Z,4.53
2023-03-06T16:51:50.589Z,4.53
2023-03-06T16:54:03.181Z,4.51
2023-03-06T16:56:17.798Z,4.52
2023-03-06T16:58:30.505Z,4.51
2023-03-06T17:00:43.674Z,4.51
2023-03-06T17:02:56.310Z,4.49
2023-03-06T17:05:11.247Z,4.46
2023-03-06T17:07:24.199Z,4.45
2023-03-06T17:09:36.815Z,4.45
2023-03-06T17:11:49.846Z,4.44
2023-03-06T17:14:02.589Z,4.44
2023-03-06T17:16:16.630Z,4.41
2023-03-06T17:18:29.992Z,4.38
2023-03-06T17:20:50.131Z,4.33
2023-03-06T17:23:02.778Z,4.26
2023-03-06T17:25:15.396Z,4.21
2023-03-06T17:27:28.480Z,4.16
2023-03-06T17:29:41.133Z,4.12
2023-03-06T17:31:53.881Z,4.08
2023-03-06T17:34:08.511Z,4.04
2023-03-06T17:36:21.091Z,3.98
2023-03-06T17:38:33.703Z,3.90
2023-03-06T17:40:46.370Z,3.81
2023-03-06T17:42:58.926Z,3.74
2023-03-06T17:45:12.003Z,3.65
2023-03-06T17:47:24.524Z,3.52
2023-03-06T17:49:37.107Z,3.46
2023-03-06T17:51:49.727Z,3.39
2023-03-06T17:54:02.320Z,3.32
2023-03-06T17:56:15.119Z,3.27
2023-03-06T17:58:27.818Z,3.22
2023-03-06T18:00:42.001Z,3.18
2023-03-06T18:02:54.602Z,3.12
2023-03-06T18:05:07.864Z,3.11
2023-03-06T18:07:20.669Z,3.09
2023-03-06T18:09:33.381Z,3.04
2023-03-06T18:11:46.049Z,2.98
2023-03-06T18:13:59.269Z,2.91
2023-03-06T18:16:18.100Z,2.82
2023-03-06T18:18:31.162Z,2.80
2023-03-06T18:20:46.500Z,2.78
2023-03-06T18:23:03.419Z,2.78
2023-03-06T18:25:16.169Z,2.79
2023-03-06T18:27:28.795Z,2.80
2023-03-06T18:29:42.065Z,2.79
2023-03-06T18:31:56.341Z,2.79
2023-03-06T18:34:13.967Z,2.76
2023-03-06T18:36:29.693Z,2.73
2023-03-06T18:38:43.971Z,2.69
2023-03-06T18:40:56.556Z,2.66
2023-03-06T18:43:12.420Z,2.65
2023-03-06T18:45:25.282Z,2.63
2023-03-06T18:47:37.844Z,2.62
2023-03-06T18:49:50.747Z,2.59
2023-03-06T18:52:05.215Z,2.57
2023-03-06T18:54:17.971Z,2.56
2023-03-06T18:56:31.310Z,2.57
2023-03-06T18:58:44.472Z,2.58
2023-03-06T19:00:59.331Z,2.55
2023-03-06T19:03:12.429Z,2.47
2023-03-06T19:05:25.259Z,2.40
2023-03-06T19:07:39.153Z,2.40
2023-03-06T19:09:51.744Z,2.43
2023-03-06T19:12:04.932Z,2.45
2023-03-06T19:14:17.541Z,2.45
2023-03-06T19:16:31.195Z,2.44
2023-03-06T19:18:43.884Z,2.43
2023-03-06T19:21:07.571Z,2.41
2023-03-06T19:23:21.418Z,2.25
2023-03-06T19:25:34.200Z,2.18
2023-03-06T19:27:46.819Z,2.13
2023-03-06T19:29:59.378Z,2.08
2023-03-06T19:32:12.251Z,2.06
2023-03-06T19:34:24.918Z,2.06
2023-03-06T19:36:38.867Z,2.07
2023-03-06T19:38:59.219Z,2.03
2023-03-06T19:41:13.770Z,1.99
2023-03-06T19:43:27.837Z,2.00
2023-03-06T19:45:44.577Z,2.00
2023-03-06T19:48:00.729Z,1.97
2023-03-06T19:50:13.421Z,1.96
2023-03-06T19:52:26.560Z,1.96
2023-03-06T19:54:39.326Z,1.98
2023-03-06T19:56:51.908Z,2.01
2023-03-06T19:59:04.504Z,2.05
2023-03-06T20:01:19.940Z,2.07
2023-03-06T20:03:32.536Z,2.10
2023-03-06T20:05:46.741Z,2.13
2023-03-06T20:07:59.421Z,2.17
2023-03-06T20:10:13.208Z,2.15
2023-03-06T20:12:25.779Z,2.13
2023-03-06T20:14:38.496Z,2.11
2023-03-06T20:16:51.096Z,2.12
2023-03-06T20:19:04.481Z,2.15
2023-03-06T20:21:17.251Z,2.18
2023-03-06T20:23:30.846Z,2.21
2023-03-06T20:25:43.473Z,2.25
2023-03-06T20:27:56.064Z,2.29
2023-03-06T20:30:09.292Z,2.31
2023-03-06T20:32:21.892Z,2.25
2023-03-06T20:34:34.469Z,2.19
2023-03-06T20:36:47.262Z,2.18
2023-03-06T20:39:00.298Z,2.17
2023-03-06T20:41:17.377Z,2.16
2023-03-06T20:43:29.961Z,2.16
2023-03-06T20:45:42.497Z,2.18
2023-03-06T20:47:57.076Z,2.21
2023-03-06T20:50:10.193Z,2.25
2023-03-06T20:52:22.759Z,2.29
2023-03-06T20:54:35.728Z,2.30
2023-03-06T20:56:49.186Z,2.31
2023-03-06T20:59:02.722Z,2.33
2023-03-06T21:01:25.458Z,2.36
2023-03-06T21:03:38.369Z,2.36
2023-03-06T21:05:51.087Z,2.39
2023-03-06T21:08:03.840Z,2.41
2023-03-06T21:10:16.489Z,2.42
2023-03-06T21:12:29.167Z,2.37
2023-03-06T21:14:41.750Z,2.33
2023-03-06T21:16:54.351Z,2.28
2023-03-06T21:19:06.970Z,2.26
2023-03-06T21:21:22.023Z,2.32
2023-03-06T21:23:34.638Z,2.35
2023-03-06T21:25:52.342Z,2.39
2023-03-06T21:28:05.142Z,2.39
2023-03-06T21:30:17.951Z,2.43
2023-03-06T21:32:30.895Z,2.44
2023-03-06T21:34:43.535Z,2.44
2023-03-06T21:36:56.187Z,2.42
2023-03-06T21:39:09.171Z,2.40
2023-03-06T21:41:27.748Z,2.44
2023-03-06T21:43:40.742Z,2.47
2023-03-06T21:45:57.389Z,2.48
2023-03-06T21:48:10.119Z,2.47
2023-03-06T21:50:23.713Z,2.48
2023-03-06T21:52:36.790Z,2.52
2023-03-06T21:54:49.863Z,2.51
2023-03-06T21:57:02.427Z,2.46
2023-03-06T21:59:14.991Z,2.45
2023-03-06T22:01:28.917Z,2.49
2023-03-06T22:03:41.676Z,2.47
2023-03-06T22:05:54.578Z,2.45
2023-03-06T22:08:07.108Z,2.41
2023-03-06T22:10:20.055Z,2.36
2023-03-06T22:12:36.638Z,2.29
2023-03-06T22:14:49.330Z,2.30
2023-03-06T22:17:02.008Z,2.31
2023-03-06T22:19:15.609Z,2.32
2023-03-06T22:21:28.175Z,2.32
2023-03-06T22:23:41.483Z,2.36
2023-03-06T22:25:54.051Z,2.36
2023-03-06T22:28:06.566Z,2.38
2023-03-06T22:30:19.270Z,2.39
2023-03-06T22:32:31.895Z,2.35
2023-03-06T22:34:44.450Z,2.31
2023-03-06T22:36:57.238Z,2.28
2023-03-06T22:39:12.152Z,2.27
2023-03-06T22:41:27.789Z,2.25
2023-03-06T22:43:40.512Z,2.20
2023-03-06T22:45:53.352Z,2.16
2023-03-06T22:48:11.192Z,2.12
2023-03-06T22:50:24.054Z,2.09
2023-03-06T22:52:36.614Z,2.09
2023-03-06T22:54:49.189Z,2.11
2023-03-06T22:57:01.804Z,2.13
2023-03-06T22:59:14.420Z,2.15
2023-03-06T23:01:32.974Z,2.17
2023-03-06T23:03:48.609Z,2.16
2023-03-06T23:06:01.297Z,2.15
2023-03-06T23:08:13.883Z,2.15
2023-03-06T23:10:26.514Z,2.19
2023-03-06T23:12:41.557Z,2.22
2023-03-06T23:14:54.465Z,2.17
2023-03-06T23:17:07.120Z,2.15
2023-03-06T23:19:19.659Z,2.15
2023-03-06T23:21:33.776Z,2.15
2023-03-06T23:23:54.113Z,2.15
2023-03-06T23:26:08.088Z,2.14
2023-03-06T23:28:20.726Z,2.13
2023-03-06T23:30:33.350Z,2.14
2023-03-06T23:32:46.197Z,2.16
2023-03-06T23:34:58.832Z,2.18
2023-03-06T23:37:11.425Z,2.20
2023-03-06T23:39:24.035Z,2.21
2023-03-06T23:41:36.600Z,2.16
2023-03-06T23:43:50.556Z,2.14
2023-03-06T23:46:04.131Z,2.15
2023-03-06T23:48:16.740Z,2.15
2023-03-06T23:50:29.264Z,2.13
2023-03-06T23:52:41.837Z,2.07
2023-03-06T23:54:54.347Z,2.00
2023-03-06T23:57:07.002Z,1.92
2023-03-06T23:59:19.542Z,1.91
